sensor_id;sensor_type;location;lat;lon;timestamp;pressure;altitude;pressure_sealevel;temperature;humidity
74075;BME280;62428;51.412;5.432;2022-07-29T00:02:26;101510.91;;;19.34;48.42
74075;BME280;62428;51.412;5.432;2022-07-29T00:04:52;101511.69;;;19.34;48.96
74075;BME280;62428;51.412;5.432;2022-07-29T00:07:18;101510.13;;;19.33;48.60
74075;BME280;62428;51.412;5.432;2022-07-29T00:09:43;101508.84;;;19.31;49.92
74075;BME280;62428;51.412;5.432;2022-07-29T00:12:08;101511.25;;;19.32;50.17
74075;BME280;62428;51.412;5.432;2022-07-29T00:14:34;101514.63;;;19.29;50.66
74075;BME280;62428;51.412;5.432;2022-07-29T00:16:59;101517.72;;;19.28;50.15
74075;BME280;62428;51.412;5.432;2022-07-29T00:19:25;101528.59;;;19.28;50.93
74075;BME280;62428;51.412;5.432;2022-07-29T00:21:50;101528.47;;;19.24;50.25
74075;BME280;62428;51.412;5.432;2022-07-29T00:24:15;101542.75;;;19.21;50.23
74075;BME280;62428;51.412;5.432;2022-07-29T00:26:41;101551.13;;;19.16;55.13
74075;BME280;62428;51.412;5.432;2022-07-29T00:29:06;101572.31;;;19.10;55.35
74075;BME280;62428;51.412;5.432;2022-07-29T00:31:31;101583.59;;;19.00;57.41
74075;BME280;62428;51.412;5.432;2022-07-29T00:33:57;101601.91;;;18.91;56.94
74075;BME280;62428;51.412;5.432;2022-07-29T00:36:22;101603.56;;;18.83;57.12
74075;BME280;62428;51.412;5.432;2022-07-29T00:38:49;101587.91;;;18.71;58.45
74075;BME280;62428;51.412;5.432;2022-07-29T00:41:15;101579.31;;;18.60;61.62
74075;BME280;62428;51.412;5.432;2022-07-29T00:43:41;101575.72;;;18.48;62.03
74075;BME280;62428;51.412;5.432;2022-07-29T00:46:06;101571.47;;;18.29;64.70
74075;BME280;62428;51.412;5.432;2022-07-29T00:48:32;101560.94;;;18.19;65.95
74075;BME280;62428;51.412;5.432;2022-07-29T00:50:58;101551.56;;;17.99;66.73
74075;BME280;62428;51.412;5.432;2022-07-29T00:53:25;101528.13;;;17.85;67.66
74075;BME280;62428;51.412;5.432;2022-07-29T00:55:53;101520.59;;;17.65;66.59
74075;BME280;62428;51.412;5.432;2022-07-29T00:58:19;101505.13;;;17.48;66.97
74075;BME280;62428;51.412;5.432;2022-07-29T01:00:44;101485.03;;;17.32;67.65
74075;BME280;62428;51.412;5.432;2022-07-29T01:03:10;101469.09;;;17.13;68.79
74075;BME280;62428;51.412;5.432;2022-07-29T01:05:35;101450.88;;;16.96;68.88
74075;BME280;62428;51.412;5.432;2022-07-29T01:08:01;101440.00;;;16.78;69.38
74075;BME280;62428;51.412;5.432;2022-07-29T01:10:27;101438.56;;;16.63;69.39
74075;BME280;62428;51.412;5.432;2022-07-29T01:12:57;101436.00;;;16.58;69.96
74075;BME280;62428;51.412;5.432;2022-07-29T01:15:23;101420.03;;;16.57;71.13
74075;BME280;62428;51.412;5.432;2022-07-29T01:18:04;101403.94;;;16.43;71.71
74075;BME280;62428;51.412;5.432;2022-07-29T01:23:40;101394.66;;;16.44;70.54
74075;BME280;62428;51.412;5.432;2022-07-29T01:26:49;101399.16;;;16.48;71.56
74075;BME280;62428;51.412;5.432;2022-07-29T01:29:24;101420.03;;;16.48;73.63
74075;BME280;62428;51.412;5.432;2022-07-29T01:32:08;101442.84;;;16.47;70.60
74075;BME280;62428;51.412;5.432;2022-07-29T01:37:28;101448.44;;;16.42;71.65
74075;BME280;62428;51.412;5.432;2022-07-29T01:39:56;101428.34;;;16.43;74.00
74075;BME280;62428;51.412;5.432;2022-07-29T01:42:36;101433.28;;;16.49;71.96
74075;BME280;62428;51.412;5.432;2022-07-29T01:45:24;101431.03;;;16.51;71.27
74075;BME280;62428;51.412;5.432;2022-07-29T01:50:17;101421.19;;;16.56;73.52
74075;BME280;62428;51.412;5.432;2022-07-29T01:52:54;101413.84;;;16.56;72.80
74075;BME280;62428;51.412;5.432;2022-07-29T01:55:24;101406.66;;;16.60;74.43
74075;BME280;62428;51.412;5.432;2022-07-29T01:57:52;101403.63;;;16.62;75.82
74075;BME280;62428;51.412;5.432;2022-07-29T02:00:17;101412.41;;;16.67;77.20
74075;BME280;62428;51.412;5.432;2022-07-29T02:02:44;101415.91;;;16.68;76.45
74075;BME280;62428;51.412;5.432;2022-07-29T02:05:14;101418.59;;;16.68;75.55
74075;BME280;62428;51.412;5.432;2022-07-29T02:07:42;101414.78;;;16.69;75.83
74075;BME280;62428;51.412;5.432;2022-07-29T02:10:09;101400.91;;;16.70;76.26
74075;BME280;62428;51.412;5.432;2022-07-29T02:12:35;101411.94;;;16.74;77.04
74075;BME280;62428;51.412;5.432;2022-07-29T02:15:03;101410.63;;;16.71;76.43
74075;BME280;62428;51.412;5.432;2022-07-29T02:17:37;101411.44;;;16.63;75.55
74075;BME280;62428;51.412;5.432;2022-07-29T02:20:04;101414.47;;;16.62;75.74
74075;BME280;62428;51.412;5.432;2022-07-29T02:22:33;101420.34;;;16.55;76.44
74075;BME280;62428;51.412;5.432;2022-07-29T02:25:00;101427.22;;;16.52;76.89
74075;BME280;62428;51.412;5.432;2022-07-29T02:27:27;101417.81;;;16.59;76.95
74075;BME280;62428;51.412;5.432;2022-07-29T02:29:54;101418.75;;;16.63;77.16
74075;BME280;62428;51.412;5.432;2022-07-29T02:32:22;101411.91;;;16.65;77.03
74075;BME280;62428;51.412;5.432;2022-07-29T02:34:50;101417.50;;;16.60;77.25
74075;BME280;62428;51.412;5.432;2022-07-29T02:37:17;101411.28;;;16.60;77.77
74075;BME280;62428;51.412;5.432;2022-07-29T02:39:44;101409.34;;;16.51;77.53
74075;BME280;62428;51.412;5.432;2022-07-29T02:42:13;101411.28;;;16.51;77.70
74075;BME280;62428;51.412;5.432;2022-07-29T02:44:39;101419.72;;;16.49;77.22
74075;BME280;62428;51.412;5.432;2022-07-29T02:49:38;101417.00;;;16.49;77.45
74075;BME280;62428;51.412;5.432;2022-07-29T02:52:12;101416.22;;;16.49;77.50
74075;BME280;62428;51.412;5.432;2022-07-29T02:54:46;101409.19;;;16.48;76.51
74075;BME280;62428;51.412;5.432;2022-07-29T02:57:36;101409.66;;;16.50;75.03
74075;BME280;62428;51.412;5.432;2022-07-29T03:00:06;101410.16;;;16.43;77.54
74075;BME280;62428;51.412;5.432;2022-07-29T03:02:37;101410.31;;;16.47;77.35
74075;BME280;62428;51.412;5.432;2022-07-29T03:05:06;101401.69;;;16.45;77.45
74075;BME280;62428;51.412;5.432;2022-07-29T03:07:34;101405.50;;;16.44;77.45
74075;BME280;62428;51.412;5.432;2022-07-29T03:10:01;101402.63;;;16.40;77.15
74075;BME280;62428;51.412;5.432;2022-07-29T03:12:28;101409.34;;;16.34;77.64
74075;BME280;62428;51.412;5.432;2022-07-29T03:14:55;101407.28;;;16.40;77.68
74075;BME280;62428;51.412;5.432;2022-07-29T03:17:21;101415.25;;;16.36;77.96
74075;BME280;62428;51.412;5.432;2022-07-29T03:19:47;101409.34;;;16.34;77.41
74075;BME280;62428;51.412;5.432;2022-07-29T03:22:13;101422.56;;;16.27;77.64
74075;BME280;62428;51.412;5.432;2022-07-29T03:24:39;101424.78;;;16.25;77.42
74075;BME280;62428;51.412;5.432;2022-07-29T03:27:04;101438.34;;;16.25;77.41
74075;BME280;62428;51.412;5.432;2022-07-29T03:29:30;101425.28;;;16.27;77.45
74075;BME280;62428;51.412;5.432;2022-07-29T03:31:56;101424.63;;;16.30;77.86
74075;BME280;62428;51.412;5.432;2022-07-29T03:34:21;101419.19;;;16.30;78.38
74075;BME280;62428;51.412;5.432;2022-07-29T03:36:47;101401.53;;;16.32;78.25
74075;BME280;62428;51.412;5.432;2022-07-29T03:39:21;101402.00;;;16.34;77.66
74075;BME280;62428;51.412;5.432;2022-07-29T03:41:49;101391.16;;;16.34;77.83
74075;BME280;62428;51.412;5.432;2022-07-29T03:44:17;101392.91;;;16.30;78.01
74075;BME280;62428;51.412;5.432;2022-07-29T03:46:45;101396.56;;;16.26;77.55
74075;BME280;62428;51.412;5.432;2022-07-29T03:49:11;101396.69;;;16.21;76.75
74075;BME280;62428;51.412;5.432;2022-07-29T03:51:40;101413.78;;;16.21;75.36
74075;BME280;62428;51.412;5.432;2022-07-29T03:54:05;101409.78;;;16.19;77.47
74075;BME280;62428;51.412;5.432;2022-07-29T03:56:34;101407.38;;;16.17;77.38
74075;BME280;62428;51.412;5.432;2022-07-29T03:59:02;101401.78;;;16.13;76.28
74075;BME280;62428;51.412;5.432;2022-07-29T04:01:29;101386.16;;;16.10;76.46
74075;BME280;62428;51.412;5.432;2022-07-29T04:03:57;101377.38;;;16.13;76.12
74075;BME280;62428;51.412;5.432;2022-07-29T04:06:23;101375.81;;;16.12;75.94
74075;BME280;62428;51.412;5.432;2022-07-29T04:08:48;101375.34;;;16.10;76.73
74075;BME280;62428;51.412;5.432;2022-07-29T04:11:14;101397.31;;;16.09;77.21
74075;BME280;62428;51.412;5.432;2022-07-29T04:13:39;101400.00;;;16.00;77.76
74075;BME280;62428;51.412;5.432;2022-07-29T04:16:04;101405.09;;;15.93;76.54
74075;BME280;62428;51.412;5.432;2022-07-29T04:18:30;101419.28;;;15.90;78.09
74075;BME280;62428;51.412;5.432;2022-07-29T04:20:55;101411.16;;;15.90;77.84
74075;BME280;62428;51.412;5.432;2022-07-29T04:23:21;101412.25;;;15.89;77.26
74075;BME280;62428;51.412;5.432;2022-07-29T04:25:46;101413.03;;;15.89;77.88
74075;BME280;62428;51.412;5.432;2022-07-29T04:28:12;101409.38;;;15.85;77.97
74075;BME280;62428;51.412;5.432;2022-07-29T04:30:37;101413.50;;;15.83;77.92
74075;BME280;62428;51.412;5.432;2022-07-29T04:33:05;101411.59;;;15.83;78.53
74075;BME280;62428;51.412;5.432;2022-07-29T04:35:34;101411.59;;;15.83;78.32
74075;BME280;62428;51.412;5.432;2022-07-29T04:37:59;101421.63;;;15.83;78.62
74075;BME280;62428;51.412;5.432;2022-07-29T04:40:25;101428.47;;;15.80;78.25
74075;BME280;62428;51.412;5.432;2022-07-29T04:42:50;101433.56;;;15.82;76.20
74075;BME280;62428;51.412;5.432;2022-07-29T04:45:16;101437.91;;;15.83;78.43
74075;BME280;62428;51.412;5.432;2022-07-29T04:47:41;101438.69;;;15.83;78.36
74075;BME280;62428;51.412;5.432;2022-07-29T04:50:08;101444.41;;;15.82;78.81
74075;BME280;62428;51.412;5.432;2022-07-29T04:52:33;101455.72;;;15.84;78.41
74075;BME280;62428;51.412;5.432;2022-07-29T04:55:00;101454.75;;;15.80;78.56
74075;BME280;62428;51.412;5.432;2022-07-29T04:57:26;101458.44;;;15.84;78.84
74075;BME280;62428;51.412;5.432;2022-07-29T04:59:51;101448.09;;;15.86;78.72
74075;BME280;62428;51.412;5.432;2022-07-29T05:02:16;101451.09;;;15.84;77.87
74075;BME280;62428;51.412;5.432;2022-07-29T05:04:42;101467.69;;;15.83;77.90
74075;BME280;62428;51.412;5.432;2022-07-29T05:07:07;101461.28;;;15.79;77.99
74075;BME280;62428;51.412;5.432;2022-07-29T05:09:32;101471.50;;;15.82;79.09
74075;BME280;62428;51.412;5.432;2022-07-29T05:11:58;101474.22;;;15.82;78.67
74075;BME280;62428;51.412;5.432;2022-07-29T05:14:23;101463.81;;;15.75;78.57
74075;BME280;62428;51.412;5.432;2022-07-29T05:16:48;101467.13;;;15.72;78.77
74075;BME280;62428;51.412;5.432;2022-07-29T05:19:16;101468.44;;;15.74;78.33
74075;BME280;62428;51.412;5.432;2022-07-29T05:21:41;101460.78;;;15.76;78.18
74075;BME280;62428;51.412;5.432;2022-07-29T05:24:07;101451.09;;;15.75;78.54
74075;BME280;62428;51.412;5.432;2022-07-29T05:26:33;101445.38;;;15.77;78.89
74075;BME280;62428;51.412;5.432;2022-07-29T05:28:58;101449.16;;;15.76;78.70
74075;BME280;62428;51.412;5.432;2022-07-29T05:31:23;101454.09;;;15.74;77.90
74075;BME280;62428;51.412;5.432;2022-07-29T05:33:49;101457.41;;;15.71;79.12
74075;BME280;62428;51.412;5.432;2022-07-29T05:36:14;101454.09;;;15.74;78.81
74075;BME280;62428;51.412;5.432;2022-07-29T05:38:39;101461.09;;;15.75;78.53
74075;BME280;62428;51.412;5.432;2022-07-29T05:41:05;101446.47;;;15.76;78.61
74075;BME280;62428;51.412;5.432;2022-07-29T05:43:31;101452.75;;;15.71;78.96
74075;BME280;62428;51.412;5.432;2022-07-29T05:45:56;101448.16;;;15.72;78.69
74075;BME280;62428;51.412;5.432;2022-07-29T05:48:21;101453.28;;;15.73;77.51
74075;BME280;62428;51.412;5.432;2022-07-29T05:50:47;101464.72;;;15.70;78.93
74075;BME280;62428;51.412;5.432;2022-07-29T05:53:12;101459.94;;;15.67;79.12
74075;BME280;62428;51.412;5.432;2022-07-29T05:55:37;101468.53;;;15.69;78.63
74075;BME280;62428;51.412;5.432;2022-07-29T05:58:03;101459.31;;;15.70;78.63
74075;BME280;62428;51.412;5.432;2022-07-29T06:00:28;101465.41;;;15.76;78.03
74075;BME280;62428;51.412;5.432;2022-07-29T06:02:53;101474.03;;;15.78;78.75
74075;BME280;62428;51.412;5.432;2022-07-29T06:05:19;101470.22;;;15.79;78.47
74075;BME280;62428;51.412;5.432;2022-07-29T06:07:44;101466.88;;;15.82;78.19
74075;BME280;62428;51.412;5.432;2022-07-29T06:10:09;101458.13;;;15.85;79.06
74075;BME280;62428;51.412;5.432;2022-07-29T06:12:35;101464.34;;;15.86;79.03
74075;BME280;62428;51.412;5.432;2022-07-29T06:15:00;101464.50;;;15.89;78.80
74075;BME280;62428;51.412;5.432;2022-07-29T06:17:26;101461.03;;;15.89;78.25
74075;BME280;62428;51.412;5.432;2022-07-29T06:19:51;101466.75;;;15.87;77.96
74075;BME280;62428;51.412;5.432;2022-07-29T06:22:16;101475.66;;;15.88;78.44
74075;BME280;62428;51.412;5.432;2022-07-29T06:24:42;101470.59;;;15.86;76.13
74075;BME280;62428;51.412;5.432;2022-07-29T06:27:10;101465.94;;;15.87;78.55
74075;BME280;62428;51.412;5.432;2022-07-29T06:29:35;101468.19;;;15.85;78.73
74075;BME280;62428;51.412;5.432;2022-07-29T06:32:01;101476.78;;;15.87;78.45
74075;BME280;62428;51.412;5.432;2022-07-29T06:34:27;101470.25;;;15.88;78.32
74075;BME280;62428;51.412;5.432;2022-07-29T06:36:52;101468.97;;;15.85;78.55
74075;BME280;62428;51.412;5.432;2022-07-29T06:39:18;101469.75;;;15.86;78.48
74075;BME280;62428;51.412;5.432;2022-07-29T06:41:46;101469.75;;;15.86;78.48
74075;BME280;62428;51.412;5.432;2022-07-29T06:44:12;101461.16;;;15.84;78.78
74075;BME280;62428;51.412;5.432;2022-07-29T06:46:39;101455.56;;;15.80;78.81
74075;BME280;62428;51.412;5.432;2022-07-29T06:49:04;101467.19;;;15.81;78.54
74075;BME280;62428;51.412;5.432;2022-07-29T06:51:30;101462.41;;;15.78;79.28
74075;BME280;62428;51.412;5.432;2022-07-29T06:53:55;101470.72;;;15.81;78.65
74075;BME280;62428;51.412;5.432;2022-07-29T06:56:22;101473.41;;;15.81;78.87
74075;BME280;62428;51.412;5.432;2022-07-29T06:58:48;101478.34;;;15.79;76.07
74075;BME280;62428;51.412;5.432;2022-07-29T07:01:13;101486.00;;;15.77;79.50
74075;BME280;62428;51.412;5.432;2022-07-29T07:03:39;101490.28;;;15.78;78.60
74075;BME280;62428;51.412;5.432;2022-07-29T07:06:04;101490.47;;;15.82;77.12
74075;BME280;62428;51.412;5.432;2022-07-29T07:08:29;101495.75;;;15.87;79.47
74075;BME280;62428;51.412;5.432;2022-07-29T07:10:55;101501.22;;;15.95;78.77
74075;BME280;62428;51.412;5.432;2022-07-29T07:13:22;101499.22;;;16.10;78.75
74075;BME280;62428;51.412;5.432;2022-07-29T07:15:47;101505.53;;;16.45;77.45
74075;BME280;62428;51.412;5.432;2022-07-29T07:18:14;101503.72;;;16.89;77.14
74075;BME280;62428;51.412;5.432;2022-07-29T07:20:40;101504.84;;;17.23;76.17
74075;BME280;62428;51.412;5.432;2022-07-29T07:23:05;101508.38;;;17.41;75.65
74075;BME280;62428;51.412;5.432;2022-07-29T07:25:31;101502.22;;;17.71;75.67
74075;BME280;62428;51.412;5.432;2022-07-29T07:27:57;101510.00;;;17.98;73.37
74075;BME280;62428;51.412;5.432;2022-07-29T07:30:22;101509.59;;;18.17;72.40
74075;BME280;62428;51.412;5.432;2022-07-29T07:32:48;101518.94;;;18.37;73.50
74075;BME280;62428;51.412;5.432;2022-07-29T07:35:13;101514.25;;;18.47;68.24
74075;BME280;62428;51.412;5.432;2022-07-29T07:37:39;101513.09;;;18.56;70.81
74075;BME280;62428;51.412;5.432;2022-07-29T07:40:09;101512.75;;;18.58;69.33
74075;BME280;62428;51.412;5.432;2022-07-29T07:42:36;101519.28;;;18.66;70.61
74075;BME280;62428;51.412;5.432;2022-07-29T07:45:02;101515.66;;;18.82;70.08
74075;BME280;62428;51.412;5.432;2022-07-29T07:47:27;101523.03;;;19.03;67.81
74075;BME280;62428;51.412;5.432;2022-07-29T07:49:53;101525.50;;;19.17;63.84
74075;BME280;62428;51.412;5.432;2022-07-29T07:52:20;101526.34;;;19.30;63.21
74075;BME280;62428;51.412;5.432;2022-07-29T07:54:47;101530.03;;;19.46;66.27
74075;BME280;62428;51.412;5.432;2022-07-29T07:57:13;101530.66;;;19.64;66.98
74075;BME280;62428;51.412;5.432;2022-07-29T07:59:38;101533.34;;;19.85;64.47
74075;BME280;62428;51.412;5.432;2022-07-29T08:02:04;101532.47;;;19.93;64.47
74075;BME280;62428;51.412;5.432;2022-07-29T08:04:30;101533.38;;;20.10;62.74
74075;BME280;62428;51.412;5.432;2022-07-29T08:06:56;101530.31;;;20.24;64.68
74075;BME280;62428;51.412;5.432;2022-07-29T08:09:23;101532.25;;;20.35;62.04
74075;BME280;62428;51.412;5.432;2022-07-29T08:11:49;101534.06;;;20.44;60.73
74075;BME280;62428;51.412;5.432;2022-07-29T08:14:15;101522.91;;;20.49;60.09
74075;BME280;62428;51.412;5.432;2022-07-29T08:16:40;101524.28;;;20.55;59.46
74075;BME280;62428;51.412;5.432;2022-07-29T08:19:07;101526.69;;;20.69;61.79
74075;BME280;62428;51.412;5.432;2022-07-29T08:21:32;101529.50;;;20.85;62.20
74075;BME280;62428;51.412;5.432;2022-07-29T08:23:58;101522.84;;;20.98;58.01
74075;BME280;62428;51.412;5.432;2022-07-29T08:26:42;101524.41;;;21.11;58.74
74075;BME280;62428;51.412;5.432;2022-07-29T08:29:08;101521.88;;;21.19;57.38
74075;BME280;62428;51.412;5.432;2022-07-29T08:31:35;101516.41;;;21.19;55.97
74075;BME280;62428;51.412;5.432;2022-07-29T08:34:01;101524.59;;;21.19;58.37
74075;BME280;62428;51.412;5.432;2022-07-29T08:36:27;101528.63;;;21.37;58.58
74075;BME280;62428;51.412;5.432;2022-07-29T08:38:53;101527.13;;;21.52;57.45
74075;BME280;62428;51.412;5.432;2022-07-29T08:41:19;101531.97;;;21.59;54.15
74075;BME280;62428;51.412;5.432;2022-07-29T08:43:45;101528.88;;;21.60;53.98
74075;BME280;62428;51.412;5.432;2022-07-29T08:46:11;101538.59;;;21.74;57.79
74075;BME280;62428;51.412;5.432;2022-07-29T08:48:37;101534.22;;;21.85;55.37
74075;BME280;62428;51.412;5.432;2022-07-29T08:51:06;101530.50;;;21.93;55.08
74075;BME280;62428;51.412;5.432;2022-07-29T08:53:32;101528.22;;;22.11;57.71
74075;BME280;62428;51.412;5.432;2022-07-29T08:55:58;101531.22;;;22.22;59.45
74075;BME280;62428;51.412;5.432;2022-07-29T08:58:25;101536.16;;;22.32;56.63
74075;BME280;62428;51.412;5.432;2022-07-29T09:00:52;101541.19;;;22.30;56.24
74075;BME280;62428;51.412;5.432;2022-07-29T09:03:20;101540.31;;;22.42;54.82
74075;BME280;62428;51.412;5.432;2022-07-29T09:05:48;101538.97;;;22.52;54.94
74075;BME280;62428;51.412;5.432;2022-07-29T09:08:15;101543.66;;;22.51;53.02
74075;BME280;62428;51.412;5.432;2022-07-29T09:10:40;101539.06;;;22.55;54.80
74075;BME280;62428;51.412;5.432;2022-07-29T09:13:05;101544.59;;;22.59;55.56
74075;BME280;62428;51.412;5.432;2022-07-29T09:15:31;101545.63;;;22.70;56.77
74075;BME280;62428;51.412;5.432;2022-07-29T09:17:57;101545.56;;;22.67;53.91
74075;BME280;62428;51.412;5.432;2022-07-29T09:20:24;101542.22;;;22.57;52.68
74075;BME280;62428;51.412;5.432;2022-07-29T09:22:53;101540.00;;;22.63;56.10
74075;BME280;62428;51.412;5.432;2022-07-29T09:25:32;101548.19;;;22.79;56.31
74075;BME280;62428;51.412;5.432;2022-07-29T09:28:12;101546.72;;;22.85;53.99
74075;BME280;62428;51.412;5.432;2022-07-29T09:30:56;101551.81;;;23.02;55.94
74075;BME280;62428;51.412;5.432;2022-07-29T09:33:22;101551.28;;;23.13;54.48
74075;BME280;62428;51.412;5.432;2022-07-29T09:36:07;101553.84;;;23.25;53.28
74075;BME280;62428;51.412;5.432;2022-07-29T09:38:34;101550.97;;;23.18;48.41
74075;BME280;62428;51.412;5.432;2022-07-29T09:41:02;101548.00;;;23.07;47.92
74075;BME280;62428;51.412;5.432;2022-07-29T09:43:28;101542.41;;;23.03;48.61
74075;BME280;62428;51.412;5.432;2022-07-29T09:45:54;101540.59;;;23.08;49.14
74075;BME280;62428;51.412;5.432;2022-07-29T09:48:21;101543.41;;;23.11;48.68
74075;BME280;62428;51.412;5.432;2022-07-29T09:50:47;101531.28;;;23.12;48.41
74075;BME280;62428;51.412;5.432;2022-07-29T09:53:38;101531.44;;;23.19;49.73
74075;BME280;62428;51.412;5.432;2022-07-29T09:56:05;101535.97;;;23.31;47.70
74075;BME280;62428;51.412;5.432;2022-07-29T09:58:31;101530.94;;;23.33;46.50
74075;BME280;62428;51.412;5.432;2022-07-29T10:00:58;101535.72;;;23.40;49.86
74075;BME280;62428;51.412;5.432;2022-07-29T10:03:24;101526.78;;;23.43;51.13
74075;BME280;62428;51.412;5.432;2022-07-29T10:06:10;101533.19;;;23.51;51.80
74075;BME280;62428;51.412;5.432;2022-07-29T10:08:37;101533.41;;;23.61;51.31
74075;BME280;62428;51.412;5.432;2022-07-29T10:11:18;101529.94;;;23.65;49.35
74075;BME280;62428;51.412;5.432;2022-07-29T10:13:46;101536.03;;;23.77;52.14
74075;BME280;62428;51.412;5.432;2022-07-29T10:16:13;101534.28;;;23.89;51.48
74075;BME280;62428;51.412;5.432;2022-07-29T10:18:40;101534.34;;;23.92;50.39
74075;BME280;62428;51.412;5.432;2022-07-29T10:21:06;101531.00;;;24.03;49.77
74075;BME280;62428;51.412;5.432;2022-07-29T10:23:33;101538.66;;;24.16;50.26
74075;BME280;62428;51.412;5.432;2022-07-29T10:26:00;101529.69;;;24.20;50.44
74075;BME280;62428;51.412;5.432;2022-07-29T10:28:25;101524.25;;;24.23;48.17
74075;BME280;62428;51.412;5.432;2022-07-29T10:30:52;101522.59;;;24.18;45.63
74075;BME280;62428;51.412;5.432;2022-07-29T10:37:08;101525.09;;;24.27;49.48
74075;BME280;62428;51.412;5.432;2022-07-29T10:42:17;101528.44;;;24.40;48.39
74075;BME280;62428;51.412;5.432;2022-07-29T10:44:44;101523.25;;;24.35;44.10
74075;BME280;62428;51.412;5.432;2022-07-29T10:50:01;101520.25;;;24.44;48.04
74075;BME280;62428;51.412;5.432;2022-07-29T10:58:15;101516.59;;;24.59;46.02
74075;BME280;62428;51.412;5.432;2022-07-29T11:00:40;101515.91;;;24.69;47.25
74075;BME280;62428;51.412;5.432;2022-07-29T11:03:06;101520.69;;;24.72;44.60
74075;BME280;62428;51.412;5.432;2022-07-29T11:05:51;101524.56;;;24.71;44.90
74075;BME280;62428;51.412;5.432;2022-07-29T11:08:19;101523.75;;;24.67;44.49
74075;BME280;62428;51.412;5.432;2022-07-29T11:10:50;101527.00;;;24.77;44.36
74075;BME280;62428;51.412;5.432;2022-07-29T11:13:49;101520.78;;;24.80;46.06
74075;BME280;62428;51.412;5.432;2022-07-29T11:16:16;101517.25;;;24.79;43.42
74075;BME280;62428;51.412;5.432;2022-07-29T11:21:37;101512.44;;;25.03;47.40
74075;BME280;62428;51.412;5.432;2022-07-29T11:24:38;101510.31;;;25.23;47.49
74075;BME280;62428;51.412;5.432;2022-07-29T11:27:19;101519.63;;;25.48;46.98
74075;BME280;62428;51.412;5.432;2022-07-29T11:29:50;101515.06;;;25.63;43.51
74075;BME280;62428;51.412;5.432;2022-07-29T11:32:17;101506.88;;;25.70;44.94
74075;BME280;62428;51.412;5.432;2022-07-29T11:34:45;101512.72;;;25.65;43.64
74075;BME280;62428;51.412;5.432;2022-07-29T11:47:21;101514.75;;;25.35;44.19
74075;BME280;62428;51.412;5.432;2022-07-29T11:49:47;101508.06;;;25.32;43.50
74075;BME280;62428;51.412;5.432;2022-07-29T11:52:19;101514.03;;;25.38;43.21
74075;BME280;62428;51.412;5.432;2022-07-29T11:54:48;101511.38;;;25.48;43.37
74075;BME280;62428;51.412;5.432;2022-07-29T11:57:16;101515.00;;;25.56;43.76
74075;BME280;62428;51.412;5.432;2022-07-29T11:59:43;101515.47;;;25.65;42.27
74075;BME280;62428;51.412;5.432;2022-07-29T12:02:09;101510.84;;;25.77;41.37
74075;BME280;62428;51.412;5.432;2022-07-29T12:04:48;101510.94;;;25.87;42.26
74075;BME280;62428;51.412;5.432;2022-07-29T12:07:14;101509.09;;;25.99;43.45
74075;BME280;62428;51.412;5.432;2022-07-29T12:09:49;101513.13;;;26.12;42.24
74075;BME280;62428;51.412;5.432;2022-07-29T12:12:16;101510.81;;;26.18;40.30
74075;BME280;62428;51.412;5.432;2022-07-29T12:14:41;101513.63;;;26.25;40.26
74075;BME280;62428;51.412;5.432;2022-07-29T12:17:34;101515.59;;;26.32;41.09
74075;BME280;62428;51.412;5.432;2022-07-29T12:20:02;101512.00;;;26.20;40.65
74075;BME280;62428;51.412;5.432;2022-07-29T12:22:31;101517.06;;;26.15;40.65
74075;BME280;62428;51.412;5.432;2022-07-29T12:25:04;101513.13;;;26.16;39.56
74075;BME280;62428;51.412;5.432;2022-07-29T12:27:30;101510.38;;;26.12;41.33
74075;BME280;62428;51.412;5.432;2022-07-29T12:29:57;101515.03;;;26.04;39.61
74075;BME280;62428;51.412;5.432;2022-07-29T12:32:23;101511.47;;;26.00;40.07
74075;BME280;62428;51.412;5.432;2022-07-29T12:34:49;101500.41;;;25.97;39.23
74075;BME280;62428;51.412;5.432;2022-07-29T12:37:15;101506.38;;;26.06;38.18
74075;BME280;62428;51.412;5.432;2022-07-29T12:39:40;101506.78;;;26.08;39.62
74075;BME280;62428;51.412;5.432;2022-07-29T12:42:13;101503.22;;;26.04;41.22
74075;BME280;62428;51.412;5.432;2022-07-29T12:44:46;101510.56;;;25.89;41.21
74075;BME280;62428;51.412;5.432;2022-07-29T12:47:12;101502.72;;;25.91;43.18
74075;BME280;62428;51.412;5.432;2022-07-29T12:49:37;101506.78;;;26.08;41.52
74075;BME280;62428;51.412;5.432;2022-07-29T12:52:23;101509.25;;;26.20;41.20
74075;BME280;62428;51.412;5.432;2022-07-29T12:54:48;101507.28;;;26.21;39.15
74075;BME280;62428;51.412;5.432;2022-07-29T12:57:14;101498.97;;;26.14;40.65
74075;BME280;62428;51.412;5.432;2022-07-29T12:59:39;101508.38;;;26.09;40.40
74075;BME280;62428;51.412;5.432;2022-07-29T13:02:04;101500.78;;;25.95;38.35
74075;BME280;62428;51.412;5.432;2022-07-29T13:04:33;101497.53;;;25.82;38.15
74075;BME280;62428;51.412;5.432;2022-07-29T13:07:06;101503.66;;;25.61;37.74
74075;BME280;62428;51.412;5.432;2022-07-29T13:09:43;101500.78;;;25.50;41.24
74075;BME280;62428;51.412;5.432;2022-07-29T13:12:12;101499.44;;;25.75;43.24
74075;BME280;62428;51.412;5.432;2022-07-29T13:14:44;101502.41;;;26.00;40.48
74075;BME280;62428;51.412;5.432;2022-07-29T13:17:20;101499.94;;;25.87;41.31
74075;BME280;62428;51.412;5.432;2022-07-29T13:19:52;101501.75;;;25.69;42.06
74075;BME280;62428;51.412;5.432;2022-07-29T13:22:20;101512.75;;;25.69;41.23
74075;BME280;62428;51.412;5.432;2022-07-29T13:24:47;101496.63;;;26.16;38.73
74075;BME280;62428;51.412;5.432;2022-07-29T13:27:17;101505.13;;;26.55;38.53
74075;BME280;62428;51.412;5.432;2022-07-29T13:29:43;101502.16;;;26.85;38.02
74075;BME280;62428;51.412;5.432;2022-07-29T13:32:08;101502.28;;;27.29;36.26
74075;BME280;62428;51.412;5.432;2022-07-29T13:34:33;101501.94;;;27.48;37.28